Řízení letového provozu České republiky
OPMET data - Ceska Republika Aktualizace: 27.03.2017 12:30:28  UTC
SIGMET / AIRMET - NIL
Warning / Vystraha - NIL
 
METAR / SPECI
METAR LKCV 271200Z 06004KT 320V100 CAVOK 12/M03 Q1026 NOSIG=
METAR LKKB 271200Z VRB04KT CAVOK 12/M02 Q1027 NOSIG=
METAR LKKU 271200Z 05005KT CAVOK 14/M06 Q1026=
METAR LKKV 271230Z 12006KT 080V170 CAVOK 14/M07 Q1025 RMK REG QNH 1022=
METAR LKLN 271200Z AUTO 14005KT 090V230 CAVOK 14/M03 Q1026=
METAR LKMT 271230Z VRB02KT CAVOK 13/M03 Q1026 NOSIG RMK REG QNH 1022=
METAR LKNA 271200Z 04004KT 310V100 CAVOK 11/M03 Q1026 NOSIG=
METAR LKPD 271200Z 23003KT 200V280 CAVOK 13/M03 Q1026 NOSIG=
METAR LKPR 271230Z VRB03KT CAVOK 13/M05 Q1026 NOSIG RMK REG QNH 1022=
METAR LKTB 271230Z 17005KT 130V220 CAVOK 14/M04 Q1026 NOSIG RMK REG QNH 1022=
METAR LKVO 271200Z VRB04KT CAVOK 13/M01 Q1026=
TAF
TAF LKCV 271100Z 2712/2812 VRB02KT CAVOK=
TAF LKKB 271100Z 2712/2812 18004KT CAVOK=
TAF LKKU NIL
TAF LKKV 271100Z 2712/2818 VRB02KT CAVOK      TEMPO 2712/2719 14006KT      BECMG 2809/2812 24008KT=
TAF LKLN NIL
TAF LKMT 271100Z 2712/2818 VRB02KT CAVOK      TEMPO 2712/2802 24005KT      BECMG 2802/2805 22010KT=
TAF LKNA 271100Z 2712/2812 VRB02KT CAVOK      TEMPO 2712/2718 32008KT=
TAF LKPD 271100Z 2712/2812 VRB02KT CAVOK=
TAF LKPR 271100Z 2712/2818 VRB02KT CAVOK      TEMPO 2712/2719 15006KT      BECMG 2806/2809 25010KT=
TAF LKTB 271100Z 2712/2818 VRB02KT CAVOK      TEMPO 2712/2718 19006KT      BECMG 2809/2812 21008KT=
TAF LKVO NIL